createdAt,value
2022-10-05T00:01:45.844Z,3.35
2022-10-05T00:04:19.419Z,4.63
2022-10-05T00:06:48.459Z,5.90
2022-10-05T00:09:17.637Z,7.22
2022-10-05T00:11:44.682Z,4.25
2022-10-05T00:14:31.713Z,4.13
2022-10-05T00:16:58.559Z,6.10
2022-10-05T00:19:35.695Z,6.93
2022-10-05T00:22:16.793Z,5.28
2022-10-05T00:24:44.668Z,3.35
2022-10-05T00:27:22.224Z,4.80
2022-10-05T00:29:49.857Z,4.13
2022-10-05T00:32:16.630Z,3.17
2022-10-05T00:34:43.489Z,3.65
2022-10-05T00:37:10.358Z,6.38
2022-10-05T00:39:38.567Z,5.05
2022-10-05T00:42:34.277Z,7.70
2022-10-05T00:45:10.821Z,4.63
2022-10-05T00:48:01.887Z,6.70
2022-10-05T00:50:53.009Z,4.78
2022-10-05T00:53:42.529Z,5.68
2022-10-05T00:56:30.750Z,3.65
2022-10-05T00:59:12.644Z,5.50
2022-10-05T01:01:54.673Z,4.57
2022-10-05T01:04:25.500Z,6.72
2022-10-05T01:07:23.480Z,5.85
2022-10-05T01:09:56.409Z,4.68
2022-10-05T01:12:35.268Z,5.65
2022-10-05T01:15:09.019Z,6.82
2022-10-05T01:17:38.887Z,9.70
2022-10-05T01:20:32.565Z,6.20
2022-10-05T01:23:27.044Z,5.53
2022-10-05T01:26:18.561Z,5.75
2022-10-05T01:28:54.966Z,6.53
2022-10-05T01:31:47.698Z,8.68
2022-10-05T01:34:33.082Z,6.82
2022-10-05T01:37:23.622Z,6.82
2022-10-05T01:40:02.756Z,8.07
2022-10-05T01:42:54.486Z,5.93
2022-10-05T01:45:45.823Z,7.55
2022-10-05T01:48:23.964Z,6.82
2022-10-05T01:50:56.718Z,5.88
2022-10-05T01:53:47.561Z,14.48
2022-10-05T01:56:40.201Z,5.50
2022-10-05T01:59:22.229Z,5.50
2022-10-05T02:01:59.788Z,7.47
2022-10-05T02:08:19.991Z,5.78
2022-10-05T02:10:50.196Z,6.82
2022-10-05T02:13:32.660Z,7.75
2022-10-05T02:16:05.738Z,5.88
2022-10-05T02:18:37.284Z,6.53
2022-10-05T02:21:04.140Z,4.82
2022-10-05T02:23:33.664Z,5.72
2022-10-05T02:26:00.431Z,5.05
2022-10-05T02:28:46.547Z,5.85
2022-10-05T02:31:19.097Z,3.78
2022-10-05T02:33:45.894Z,4.65
2022-10-05T02:36:15.526Z,3.45
2022-10-05T02:38:45.246Z,3.60
2022-10-05T02:41:24.270Z,4.68
2022-10-05T02:44:00.796Z,4.70
2022-10-05T02:47:08.990Z,3.95
2022-10-05T02:49:47.223Z,3.28
2022-10-05T02:52:14.016Z,4.75
2022-10-05T02:55:02.232Z,3.00
2022-10-05T02:57:31.962Z,4.53
2022-10-05T03:00:05.491Z,3.28
2022-10-05T03:03:01.615Z,5.68
2022-10-05T03:05:42.011Z,3.53
2022-10-05T03:08:31.322Z,4.50
2022-10-05T03:11:25.825Z,2.75
2022-10-05T03:14:04.981Z,2.95
2022-10-05T03:16:59.871Z,2.58
2022-10-05T03:19:50.778Z,3.05
2022-10-05T03:22:21.018Z,1.90
2022-10-05T03:25:04.133Z,4.05
2022-10-05T03:27:42.126Z,2.58
2022-10-05T03:30:18.888Z,4.30
2022-10-05T03:33:14.341Z,1.92
2022-10-05T03:36:03.278Z,1.90
2022-10-05T03:38:50.221Z,2.35
2022-10-05T03:41:17.435Z,2.53
2022-10-05T03:44:09.970Z,2.53
2022-10-05T03:47:00.995Z,1.33
2022-10-05T03:49:52.649Z,2.15
2022-10-05T03:52:24.134Z,2.40
2022-10-05T03:54:54.779Z,1.77
2022-10-05T03:57:26.227Z,3.28
2022-10-05T04:00:05.886Z,1.77
2022-10-05T04:02:51.065Z,3.95
2022-10-05T04:05:39.555Z,2.45
2022-10-05T04:08:32.522Z,1.92
2022-10-05T04:11:01.906Z,1.58
2022-10-05T04:13:37.767Z,2.22
2022-10-05T04:16:17.253Z,1.70
2022-10-05T04:18:46.319Z,3.28
2022-10-05T04:21:26.455Z,3.53
2022-10-05T04:23:56.289Z,2.67
2022-10-05T04:26:37.866Z,3.63
2022-10-05T04:29:39.701Z,2.83
2022-10-05T04:32:06.471Z,3.20
2022-10-05T04:34:51.095Z,3.30
2022-10-05T04:37:46.473Z,1.80
2022-10-05T04:40:32.419Z,2.08
2022-10-05T04:43:15.449Z,2.35
2022-10-05T04:46:03.327Z,2.90
2022-10-05T04:48:42.138Z,2.80
2022-10-05T04:51:12.061Z,3.38
2022-10-05T04:53:38.806Z,3.22
2022-10-05T04:56:16.346Z,3.65
2022-10-05T04:59:04.662Z,3.33
2022-10-05T05:01:51.216Z,3.22
2022-10-05T05:04:23.707Z,3.03
2022-10-05T05:07:02.757Z,4.43
2022-10-05T05:09:48.014Z,5.88
2022-10-05T05:12:27.050Z,2.88
2022-10-05T05:15:02.549Z,4.05
2022-10-05T05:17:41.173Z,3.88
2022-10-05T05:20:29.643Z,3.58
2022-10-05T05:23:15.158Z,5.32
2022-10-05T05:25:44.948Z,3.97
2022-10-05T05:28:44.748Z,3.17
2022-10-05T05:31:43.864Z,3.08
2022-10-05T05:34:37.196Z,7.20
2022-10-05T05:37:36.230Z,4.75
2022-10-05T05:40:25.380Z,3.58
2022-10-05T05:43:06.957Z,3.15
2022-10-05T05:45:43.590Z,3.92
2022-10-05T05:48:22.338Z,3.72
2022-10-05T05:51:11.192Z,6.28
2022-10-05T05:53:46.829Z,4.10
2022-10-05T05:56:14.805Z,4.53
2022-10-05T05:58:49.382Z,4.13
2022-10-05T06:01:33.331Z,3.30
2022-10-05T06:04:03.800Z,4.07
2022-10-05T06:06:36.154Z,4.20
2022-10-05T06:09:12.645Z,3.25
2022-10-05T06:11:59.075Z,5.80
2022-10-05T06:14:45.032Z,3.80
2022-10-05T06:17:19.179Z,6.47
2022-10-05T06:19:46.345Z,7.07
2022-10-05T06:22:22.498Z,4.13
2022-10-05T06:25:07.939Z,4.88
2022-10-05T06:27:39.041Z,4.18
2022-10-05T06:30:07.259Z,5.18
2022-10-05T06:32:45.988Z,6.80
2022-10-05T06:35:29.690Z,3.20
2022-10-05T06:38:30.503Z,5.80
2022-10-05T06:41:03.314Z,12.20
2022-10-05T06:43:47.430Z,7.07
2022-10-05T06:46:17.394Z,6.13
2022-10-05T06:48:49.986Z,4.60
2022-10-05T06:51:45.263Z,8.00
2022-10-05T06:54:36.586Z,6.70
2022-10-05T06:57:24.188Z,4.43
2022-10-05T06:59:59.439Z,2.95
2022-10-05T07:02:30.458Z,5.70
2022-10-05T07:04:57.323Z,5.57
2022-10-05T07:07:33.384Z,7.78
2022-10-05T07:10:18.617Z,4.07
2022-10-05T07:13:07.274Z,2.75
2022-10-05T07:15:56.978Z,4.03
2022-10-05T07:19:01.329Z,4.85
2022-10-05T07:22:21.619Z,8.88
2022-10-05T07:25:13.071Z,7.45
2022-10-05T07:27:55.794Z,3.80
2022-10-05T07:30:22.663Z,3.90
2022-10-05T07:33:13.015Z,5.07
2022-10-05T07:36:06.829Z,6.53
2022-10-05T07:38:56.633Z,3.28
2022-10-05T07:41:26.497Z,3.90
2022-10-05T07:44:21.007Z,6.53
2022-10-05T07:46:58.349Z,4.90
2022-10-05T07:49:54.572Z,2.70
2022-10-05T07:52:36.798Z,4.88
2022-10-05T07:55:03.884Z,7.45
2022-10-05T07:57:46.696Z,2.97
2022-10-05T08:00:15.973Z,4.75
2022-10-05T08:02:58.606Z,5.13
2022-10-05T08:05:32.815Z,5.28
2022-10-05T08:08:14.269Z,2.97
2022-10-05T08:10:59.698Z,5.70
2022-10-05T08:13:39.462Z,3.00
2022-10-05T08:16:14.943Z,2.65
2022-10-05T08:18:45.210Z,2.45
2022-10-05T08:21:13.417Z,7.55
2022-10-05T08:23:49.519Z,7.65
2022-10-05T08:26:47.137Z,5.53
2022-10-05T08:29:20.708Z,4.90
2022-10-05T08:31:52.034Z,5.47
2022-10-05T08:34:35.175Z,6.68
2022-10-05T08:37:35.534Z,5.15
2022-10-05T08:40:24.533Z,4.03
2022-10-05T08:43:13.522Z,5.75
2022-10-05T08:46:05.008Z,7.43
2022-10-05T08:49:09.948Z,3.85
2022-10-05T08:52:11.210Z,5.00
2022-10-05T08:54:56.548Z,3.47
2022-10-05T08:57:38.581Z,3.95
2022-10-05T09:00:28.301Z,5.20
2022-10-05T09:03:16.188Z,6.68
2022-10-05T09:06:01.594Z,5.00
2022-10-05T09:08:54.590Z,9.70
2022-10-05T09:11:36.938Z,8.02
2022-10-05T09:14:28.630Z,7.22
2022-10-05T09:17:00.923Z,5.05
2022-10-05T09:19:36.478Z,6.70
2022-10-05T09:22:24.263Z,6.63
2022-10-05T09:24:57.548Z,6.78
2022-10-05T09:27:37.655Z,4.55
2022-10-05T09:30:27.080Z,3.65
2022-10-05T09:32:59.926Z,5.65
2022-10-05T09:35:51.302Z,6.82
2022-10-05T09:38:26.990Z,6.45
2022-10-05T09:40:56.845Z,5.38
2022-10-05T09:43:58.947Z,4.57
2022-10-05T09:47:04.280Z,6.80
2022-10-05T09:49:39.960Z,6.50
2022-10-05T09:52:22.743Z,7.53
2022-10-05T09:55:21.772Z,6.95
2022-10-05T09:58:06.794Z,7.93
2022-10-05T10:01:09.128Z,4.53
2022-10-05T10:04:13.723Z,6.20
2022-10-05T10:07:02.378Z,3.95
2022-10-05T10:09:41.210Z,5.03
2022-10-05T10:12:26.439Z,6.70
2022-10-05T10:15:31.098Z,3.35
2022-10-05T10:17:57.914Z,4.80
2022-10-05T10:20:46.143Z,4.65
2022-10-05T10:23:34.330Z,5.93
2022-10-05T10:26:26.028Z,5.25
2022-10-05T10:28:58.754Z,6.47
2022-10-05T10:31:50.861Z,4.32
2022-10-05T10:34:48.037Z,6.68
2022-10-05T10:37:33.633Z,7.47
2022-10-05T10:40:13.303Z,6.10
2022-10-05T10:43:03.793Z,4.18
2022-10-05T10:45:36.453Z,5.38
2022-10-05T10:48:21.246Z,6.30
2022-10-05T10:51:06.654Z,6.13
2022-10-05T10:53:42.429Z,3.72
2022-10-05T10:56:27.912Z,3.85
2022-10-05T10:59:26.626Z,4.50
2022-10-05T11:02:08.099Z,6.15
2022-10-05T11:05:03.021Z,5.90
2022-10-05T11:07:43.128Z,7.80
2022-10-05T11:10:46.178Z,5.95
2022-10-05T11:13:16.411Z,5.35
2022-10-05T11:16:10.412Z,9.32
2022-10-05T11:19:06.409Z,4.03
2022-10-05T11:22:12.469Z,5.65
2022-10-05T11:25:17.032Z,9.70
2022-10-05T11:27:43.771Z,6.10
2022-10-05T11:30:16.108Z,3.97
2022-10-05T11:32:43.158Z,5.90
2022-10-05T11:35:12.690Z,9.32
2022-10-05T11:37:58.079Z,6.13
2022-10-05T11:40:47.748Z,10.43
2022-10-05T11:43:20.419Z,5.72
2022-10-05T11:46:01.898Z,9.75
2022-10-05T11:49:03.833Z,7.00
2022-10-05T11:51:57.746Z,4.93
2022-10-05T11:55:05.789Z,5.90
2022-10-05T11:58:00.808Z,6.40
2022-10-05T12:00:42.293Z,5.35
2022-10-05T12:03:31.225Z,5.30
2022-10-05T12:06:07.050Z,9.57
2022-10-05T12:08:47.092Z,8.15
2022-10-05T12:11:29.330Z,8.55
2022-10-05T12:14:04.399Z,9.13
2022-10-05T12:16:41.654Z,6.90
2022-10-05T12:19:41.150Z,6.32
2022-10-05T12:22:37.299Z,5.45
2022-10-05T12:25:46.155Z,8.68
2022-10-05T12:28:16.782Z,3.83
2022-10-05T12:31:29.656Z,5.13
2022-10-05T12:34:15.009Z,6.40
2022-10-05T12:37:03.908Z,3.72
2022-10-05T12:39:41.558Z,7.93
2022-10-05T12:42:17.618Z,5.70
2022-10-05T12:44:59.379Z,4.05
2022-10-05T12:47:36.598Z,4.50
2022-10-05T12:50:36.773Z,3.63
2022-10-05T12:53:48.512Z,1.90
2022-10-05T12:56:44.944Z,5.90
2022-10-05T12:59:33.255Z,5.25
2022-10-05T13:02:15.198Z,8.27
2022-10-05T13:04:50.737Z,6.40
2022-10-05T13:07:39.141Z,8.23
2022-10-05T13:10:28.132Z,6.00
2022-10-05T13:13:06.242Z,6.45
2022-10-05T13:15:53.945Z,8.07
2022-10-05T13:18:39.098Z,5.22
2022-10-05T13:21:52.338Z,5.90
2022-10-05T13:24:41.873Z,4.20
2022-10-05T13:27:14.693Z,5.22
2022-10-05T13:30:02.553Z,6.45
2022-10-05T13:32:34.300Z,10.80
2022-10-05T13:35:11.360Z,4.72
2022-10-05T13:37:52.571Z,9.07
2022-10-05T13:40:19.331Z,7.35
2022-10-05T13:42:49.502Z,7.93
2022-10-05T13:45:24.774Z,6.63
2022-10-05T13:48:16.441Z,4.88
2022-10-05T13:50:48.543Z,6.60
2022-10-05T13:53:43.979Z,6.75
2022-10-05T13:56:19.873Z,8.52
2022-10-05T13:58:48.814Z,6.30
2022-10-05T14:01:34.674Z,9.27
2022-10-05T14:04:21.135Z,4.82
2022-10-05T14:06:48.557Z,6.25
2022-10-05T14:09:28.276Z,4.57
2022-10-05T14:12:04.439Z,13.77
2022-10-05T14:14:43.688Z,5.47
2022-10-05T14:17:32.988Z,7.07
2022-10-05T14:20:01.086Z,6.43
2022-10-05T14:22:27.926Z,7.95
2022-10-05T14:25:07.490Z,9.45
2022-10-05T14:27:55.368Z,7.90
2022-10-05T14:30:24.319Z,5.30
2022-10-05T14:32:51.314Z,3.42
2022-10-05T14:35:22.192Z,5.03
2022-10-05T14:37:56.316Z,5.07
2022-10-05T14:40:30.407Z,5.47
2022-10-05T14:42:58.261Z,10.40
2022-10-05T14:45:26.306Z,5.97
2022-10-05T14:48:06.255Z,7.10
2022-10-05T14:50:33.170Z,6.93
2022-10-05T14:53:03.835Z,6.60
2022-10-05T14:55:52.087Z,6.25
2022-10-05T14:58:51.692Z,8.93
2022-10-05T15:01:36.598Z,9.13
2022-10-05T15:04:12.380Z,8.57
2022-10-05T15:07:04.149Z,4.60
2022-10-05T15:09:40.101Z,9.48
2022-10-05T15:12:06.969Z,6.13
2022-10-05T15:14:42.022Z,8.30
2022-10-05T15:17:28.436Z,9.80
2022-10-05T15:20:49.531Z,4.80
2022-10-05T15:23:24.695Z,7.97
2022-10-05T15:26:11.702Z,5.57
2022-10-05T15:28:51.666Z,7.95
2022-10-05T15:31:39.763Z,5.75
2022-10-05T15:34:30.236Z,7.00
2022-10-05T15:37:12.287Z,7.53
2022-10-05T15:39:40.678Z,6.18
2022-10-05T15:42:11.469Z,5.95
2022-10-05T15:44:57.107Z,4.45
2022-10-05T15:47:42.710Z,10.45
2022-10-05T15:50:28.379Z,5.57
2022-10-05T15:53:13.988Z,7.35
2022-10-05T15:55:47.610Z,7.00
2022-10-05T15:58:20.909Z,5.35
2022-10-05T16:00:50.418Z,8.35
2022-10-05T16:03:48.607Z,7.80
2022-10-05T16:06:36.174Z,5.60
2022-10-05T16:09:32.446Z,6.10
2022-10-05T16:12:05.240Z,5.22
2022-10-05T16:14:32.024Z,8.93
2022-10-05T16:17:01.892Z,5.53
2022-10-05T16:19:32.872Z,5.75
2022-10-05T16:22:23.658Z,7.30
2022-10-05T16:25:06.552Z,5.38
2022-10-05T16:27:43.451Z,9.65
2022-10-05T16:30:12.115Z,7.32
2022-10-05T16:32:46.763Z,6.72
2022-10-05T16:35:39.356Z,10.02
2022-10-05T16:38:25.457Z,8.20
2022-10-05T16:41:23.944Z,4.43
2022-10-05T16:43:58.312Z,6.20
2022-10-05T16:46:47.183Z,4.82
2022-10-05T16:49:55.003Z,6.97
2022-10-05T16:52:21.878Z,7.32
2022-10-05T16:54:53.839Z,10.65
2022-10-05T16:57:22.502Z,7.70
2022-10-05T17:00:15.535Z,14.40
2022-10-05T17:03:13.859Z,6.78
2022-10-05T17:06:12.153Z,6.07
2022-10-05T17:09:00.771Z,6.28
2022-10-05T17:12:05.234Z,5.90
2022-10-05T17:14:51.494Z,12.55
2022-10-05T17:17:37.069Z,9.02
2022-10-05T17:20:17.656Z,8.95
2022-10-05T17:22:52.334Z,7.53
2022-10-05T17:25:41.360Z,11.25
2022-10-05T17:28:23.535Z,14.93
2022-10-05T17:30:58.815Z,15.48
2022-10-05T17:33:30.594Z,17.20
2022-10-05T17:36:04.828Z,18.63
2022-10-05T17:38:31.613Z,21.48
2022-10-05T17:41:03.136Z,18.30
2022-10-05T17:43:30.896Z,16.27
2022-10-05T17:46:00.730Z,18.98
2022-10-05T17:48:49.728Z,17.73
2022-10-05T17:51:35.473Z,16.33
2022-10-05T17:54:36.921Z,13.50
2022-10-05T17:57:04.591Z,13.88
2022-10-05T17:59:57.373Z,15.30
2022-10-05T18:02:36.925Z,15.70
2022-10-05T18:05:06.758Z,10.65
2022-10-05T18:07:37.308Z,13.07
2022-10-05T18:10:11.702Z,13.63
2022-10-05T18:13:04.077Z,15.90
2022-10-05T18:15:31.241Z,14.07
2022-10-05T18:18:19.175Z,15.85
2022-10-05T18:21:14.008Z,16.10
2022-10-05T18:23:58.777Z,17.58
2022-10-05T18:27:02.535Z,14.38
2022-10-05T18:30:03.103Z,17.08
2022-10-05T18:32:48.655Z,16.27
2022-10-05T18:35:23.199Z,16.80
2022-10-05T18:37:56.091Z,18.60
2022-10-05T18:40:34.704Z,14.18
2022-10-05T18:43:04.257Z,18.77
2022-10-05T18:45:38.805Z,22.27
2022-10-05T18:48:24.942Z,24.75
2022-10-05T18:51:06.778Z,23.75
2022-10-05T18:53:41.900Z,25.33
2022-10-05T18:56:38.281Z,33.33
2022-10-05T18:59:14.553Z,31.80
2022-10-05T19:02:03.417Z,32.65
2022-10-05T19:04:54.727Z,32.47
2022-10-05T19:07:44.190Z,36.67
2022-10-05T19:10:20.935Z,30.63
2022-10-05T19:13:01.223Z,28.15
2022-10-05T19:15:50.201Z,29.33
2022-10-05T19:18:52.638Z,19.63
2022-10-05T19:21:33.072Z,18.95
2022-10-05T19:24:08.966Z,18.92
2022-10-05T19:27:00.035Z,14.52
2022-10-05T19:29:34.715Z,15.95
2022-10-05T19:32:16.498Z,16.30
2022-10-05T19:34:49.244Z,14.60
2022-10-05T19:37:37.876Z,16.45
2022-10-05T19:40:26.540Z,18.50
2022-10-05T19:43:24.500Z,16.80
2022-10-05T19:46:03.209Z,23.85
2022-10-05T19:48:40.648Z,25.92
2022-10-05T19:51:13.708Z,25.23
2022-10-05T19:53:46.860Z,23.02
2022-10-05T19:56:21.530Z,25.80
2022-10-05T19:58:49.160Z,22.20
2022-10-05T20:01:27.256Z,16.48
2022-10-05T20:03:54.205Z,9.70
2022-10-05T20:06:21.947Z,14.25
2022-10-05T20:08:50.701Z,11.18
2022-10-05T20:11:20.893Z,15.55
2022-10-05T20:13:53.780Z,13.25
2022-10-05T20:19:50.771Z,14.77
2022-10-05T20:22:27.429Z,9.80
2022-10-05T20:24:56.194Z,9.40
2022-10-05T20:27:35.209Z,16.73
2022-10-05T20:30:02.273Z,15.35
2022-10-05T20:32:30.816Z,13.48
2022-10-05T20:34:57.744Z,12.57
2022-10-05T20:37:24.695Z,12.60
2022-10-05T20:39:51.569Z,13.38
2022-10-05T20:42:18.859Z,15.60
2022-10-05T20:44:45.772Z,15.60
2022-10-05T20:47:12.705Z,11.90
2022-10-05T20:49:41.237Z,11.15
2022-10-05T20:52:10.237Z,14.30
2022-10-05T20:54:37.817Z,18.35
2022-10-05T20:57:07.915Z,17.42
2022-10-05T20:59:35.139Z,18.75
2022-10-05T21:02:02.256Z,16.88
2022-10-05T21:04:40.197Z,21.88
2022-10-05T21:07:07.654Z,22.33
2022-10-05T21:09:34.481Z,21.85
2022-10-05T21:12:01.310Z,16.67
2022-10-05T21:14:30.599Z,17.13
2022-10-05T21:16:57.382Z,15.65
2022-10-05T21:19:24.326Z,20.30
2022-10-05T21:21:51.102Z,18.40
2022-10-05T21:24:18.927Z,15.27
2022-10-05T21:26:45.789Z,19.00
2022-10-05T21:29:13.315Z,15.43
2022-10-05T21:31:40.531Z,23.95
2022-10-05T21:34:07.678Z,21.15
2022-10-05T21:36:35.518Z,26.38
2022-10-05T21:39:02.410Z,22.23
2022-10-05T21:41:29.228Z,18.45
2022-10-05T21:43:56.108Z,24.80
2022-10-05T21:46:23.561Z,32.25
2022-10-05T21:48:50.399Z,37.15
2022-10-05T21:51:18.868Z,25.63
2022-10-05T21:54:02.825Z,24.80
2022-10-05T21:56:31.499Z,19.42
2022-10-05T21:58:58.382Z,28.80
2022-10-05T22:01:25.317Z,32.17
2022-10-05T22:03:52.129Z,22.52
2022-10-05T22:06:19.898Z,23.73
2022-10-05T22:08:46.810Z,25.13
2022-10-05T22:11:15.229Z,30.67
2022-10-05T22:13:51.922Z,29.73
2022-10-05T22:16:20.746Z,33.22
2022-10-05T22:18:48.299Z,35.47
2022-10-05T22:21:15.302Z,24.20
2022-10-05T22:23:43.082Z,28.30
2022-10-05T22:26:11.067Z,38.30
2022-10-05T22:28:38.549Z,34.20
2022-10-05T22:31:06.454Z,39.33
2022-10-05T22:33:33.234Z,28.85
2022-10-05T22:36:00.116Z,38.60
2022-10-05T22:38:27.489Z,32.95
2022-10-05T22:40:54.527Z,28.85
2022-10-05T22:43:21.293Z,34.42
2022-10-05T22:45:48.151Z,39.88
2022-10-05T22:48:16.013Z,41.60
2022-10-05T22:50:46.170Z,42.20
2022-10-05T22:53:13.516Z,32.72
2022-10-05T22:55:40.356Z,34.67
2022-10-05T22:58:07.132Z,25.30
2022-10-05T23:00:56.477Z,34.60
2022-10-05T23:03:20.714Z,29.65
2022-10-05T23:05:47.470Z,28.27
2022-10-05T23:08:14.297Z,22.83
2022-10-05T23:10:41.199Z,35.75
2022-10-05T23:13:08.796Z,33.30
2022-10-05T23:15:35.908Z,27.17
2022-10-05T23:18:02.723Z,35.75
2022-10-05T23:20:29.559Z,30.58
2022-10-05T23:22:56.463Z,28.45
2022-10-05T23:25:23.326Z,24.80
2022-10-05T23:27:50.129Z,25.20
2022-10-05T23:30:16.988Z,20.35
2022-10-05T23:32:44.256Z,27.33
2022-10-05T23:35:12.344Z,21.17
2022-10-05T23:37:40.225Z,24.30
2022-10-05T23:40:08.551Z,27.27
2022-10-05T23:42:35.478Z,21.00
2022-10-05T23:45:02.494Z,25.85
2022-10-05T23:47:29.329Z,24.77
2022-10-05T23:49:56.110Z,18.83
2022-10-05T23:52:22.993Z,30.20
2022-10-05T23:54:49.842Z,24.25
2022-10-05T23:57:18.046Z,34.38
2022-10-05T23:59:44.990Z,22.55
